Time;durP1;ratioP1;P1;durP2;ratioP2;P2;SDS_P1;SDS_P2;PMS_P1;PMS_P2;Temp;Humidity;BMP_temperature;BMP_pressure;BME280_temperature;BME280_humidity;BME280_pressure;Samples;Min_cycle;Max_cycle;Signal;HPM_P1;HPM_P2
2023/06/22 00:00:23;;;;;;;3.87;2.87;;;;;24.70;100737.00;;;;2074218;28;20470;-57
2023/06/22 00:01:23;;;;;;;3.70;2.80;;;;;24.70;100748.00;;;;2085400;28;20240;-56
2023/06/22 00:02:24;;;;;;;3.23;2.83;;;;;24.70;100749.00;;;;2080568;28;20278;-57
2023/06/22 00:03:24;;;;;;;3.50;2.90;;;;;24.70;100758.00;;;;2078640;28;20669;-57
2023/06/22 00:04:25;;;;;;;5.63;3.03;;;;;24.70;100758.00;;;;2083717;28;20212;-55
2023/06/22 00:05:25;;;;;;;3.70;3.27;;;;;24.70;100751.00;;;;2075349;28;20235;-56
2023/06/22 00:06:25;;;;;;;5.07;2.90;;;;;24.80;100757.00;;;;2083586;28;20224;-57
2023/06/22 00:07:26;;;;;;;4.93;3.40;;;;;24.70;100761.00;;;;2081585;28;20286;-57
2023/06/22 00:08:26;;;;;;;5.20;3.00;;;;;24.40;100764.00;;;;2086162;28;20284;-57
2023/06/22 00:09:26;;;;;;;5.07;3.60;;;;;24.80;100767.00;;;;2085065;28;20231;-57
2023/06/22 00:10:27;;;;;;;3.40;3.00;;;;;24.70;100760.00;;;;2076343;28;20221;-57
2023/06/22 00:11:27;;;;;;;3.80;3.13;;;;;24.70;100763.00;;;;2084299;28;20303;-55
2023/06/22 00:12:28;;;;;;;4.60;3.27;;;;;24.70;100761.00;;;;2085557;28;20221;-57
2023/06/22 00:13:28;;;;;;;4.73;3.20;;;;;24.70;100760.00;;;;2084541;28;20634;-56
2023/06/22 00:14:28;;;;;;;3.60;3.30;;;;;24.70;100759.00;;;;2085947;28;20331;-57
2023/06/22 00:15:29;;;;;;;4.10;3.07;;;;;24.70;100762.00;;;;2074768;28;20307;-57
2023/06/22 00:16:30;;;;;;;3.60;3.20;;;;;24.70;100751.00;;;;2084967;28;20213;-56
2023/06/22 00:17:30;;;;;;;4.87;3.50;;;;;24.70;100757.00;;;;2085950;28;20311;-57
2023/06/22 00:18:31;;;;;;;3.20;2.90;;;;;24.70;100765.00;;;;2085142;28;20836;-56
2023/06/22 00:19:35;;;;;;;4.60;3.53;;;;;24.70;100765.00;;;;2078499;28;20221;-56
2023/06/22 00:20:37;;;;;;;4.63;3.40;;;;;24.70;100761.00;;;;2072696;28;20217;-57
2023/06/22 00:21:38;;;;;;;3.88;3.28;;;;;24.70;100764.00;;;;2073719;28;20511;-58
2023/06/22 00:22:38;;;;;;;3.72;3.10;;;;;24.70;100767.00;;;;2067843;28;20322;-56
2023/06/22 00:23:39;;;;;;;5.20;3.43;;;;;24.60;100766.00;;;;2076431;28;20827;-58
2023/06/22 00:24:39;;;;;;;3.57;3.27;;;;;24.70;100762.00;;;;2085567;28;20220;-57
2023/06/22 00:25:40;;;;;;;5.77;3.80;;;;;24.70;100757.00;;;;2072512;28;20212;-56
2023/06/22 00:26:40;;;;;;;6.47;3.87;;;;;24.60;100763.00;;;;2084600;28;20594;-56
2023/06/22 00:27:40;;;;;;;5.07;3.80;;;;;24.60;100764.00;;;;2079128;28;20211;-57
2023/06/22 00:28:40;;;;;;;3.53;3.20;;;;;24.60;100766.00;;;;2081204;28;20232;-57
2023/06/22 00:29:41;;;;;;;3.67;3.30;;;;;24.60;100758.00;;;;2077664;28;20253;-58
2023/06/22 00:30:41;;;;;;;4.33;3.40;;;;;24.60;100758.00;;;;2067046;28;20218;-57
2023/06/22 00:31:42;;;;;;;3.70;3.30;;;;;24.60;100763.00;;;;2080600;28;20278;-57
2023/06/22 00:32:43;;;;;;;3.87;3.47;;;;;24.60;100760.00;;;;2083509;28;20224;-57
2023/06/22 00:33:43;;;;;;;4.50;3.70;;;;;24.60;100752.00;;;;2077854;28;20261;-57
2023/06/22 00:34:43;;;;;;;4.27;3.60;;;;;24.60;100755.00;;;;2076260;28;20221;-57
2023/06/22 00:35:44;;;;;;;6.33;4.70;;;;;24.60;100760.00;;;;2066699;28;20221;-57
2023/06/22 00:36:44;;;;;;;6.07;4.67;;;;;24.60;100752.00;;;;2085182;28;20693;-56
2023/06/22 00:37:44;;;;;;;4.23;3.40;;;;;24.60;100766.00;;;;2085066;28;20290;-56
2023/06/22 00:38:45;;;;;;;5.03;4.20;;;;;24.60;100751.00;;;;2079428;28;20271;-56
2023/06/22 00:39:45;;;;;;;4.23;3.50;;;;;24.70;100756.00;;;;2084950;28;20209;-57
2023/06/22 00:40:45;;;;;;;4.03;3.53;;;;;24.60;100759.00;;;;2074881;28;20227;-57
2023/06/22 00:41:46;;;;;;;3.80;3.23;;;;;24.60;100754.00;;;;2082622;28;20205;-57
2023/06/22 00:42:46;;;;;;;3.87;3.53;;;;;24.60;100755.00;;;;2085309;28;20216;-57
2023/06/22 00:43:46;;;;;;;6.17;4.00;;;;;24.40;100751.00;;;;2085458;28;20236;-57
2023/06/22 00:44:47;;;;;;;6.33;4.13;;;;;24.60;100747.00;;;;2080706;28;20212;-57
2023/06/22 00:45:47;;;;;;;8.20;4.07;;;;;24.60;100748.00;;;;2067914;28;20214;-56
2023/06/22 00:46:47;;;;;;;4.60;3.87;;;;;24.60;100749.00;;;;2073575;28;20213;-56
2023/06/22 00:47:49;;;;;;;3.63;3.33;;;;;24.60;100746.00;;;;2070841;28;20241;-57
2023/06/22 00:48:50;;;;;;;9.15;4.45;;;;;24.60;100746.00;;;;2073625;28;20221;-56
2023/06/22 00:49:53;;;;;;;5.10;4.50;;;;;24.60;100743.00;;;;2053682;28;20639;-57
2023/06/22 00:50:55;;;;;;;5.15;4.65;;;;;24.70;100747.00;;;;2061730;28;20219;-57
2023/06/22 00:51:57;;;;;;;5.72;4.40;;;;;24.60;100746.00;;;;2069341;28;20722;-56
2023/06/22 00:52:58;;;;;;;5.43;4.17;;;;;24.60;100746.00;;;;2084097;28;20216;-57
2023/06/22 00:53:58;;;;;;;5.43;4.78;;;;;24.60;100750.00;;;;2067795;28;20461;-57
2023/06/22 00:55:01;;;;;;;4.73;4.23;;;;;24.60;100747.00;;;;2059212;28;20222;-56
2023/06/22 00:56:03;;;;;;;5.30;4.80;;;;;24.60;100749.00;;;;2076639;28;20224;-57
2023/06/22 00:57:03;;;;;;;6.50;4.72;;;;;24.60;100739.00;;;;2070185;28;20256;-56
2023/06/22 00:58:05;;;;;;;7.20;5.53;;;;;24.60;100742.00;;;;2064021;28;21050;-57
2023/06/22 00:59:05;;;;;;;5.25;4.75;;;;;24.60;100741.00;;;;2061218;28;21169;-57
2023/06/22 01:00:07;;;;;;;5.40;4.83;;;;;24.60;100741.00;;;;2058483;28;20890;-56
2023/06/22 01:01:08;;;;;;;6.38;5.78;;;;;24.50;100738.00;;;;2070967;28;20209;-57
2023/06/22 01:02:09;;;;;;;5.47;4.97;;;;;24.60;100740.00;;;;2084424;28;20207;-57
2023/06/22 01:03:09;;;;;;;5.97;5.30;;;;;24.60;100736.00;;;;2067681;28;20210;-57
2023/06/22 01:04:11;;;;;;;5.27;4.70;;;;;24.60;100743.00;;;;2077368;28;20871;-56
2023/06/22 01:05:13;;;;;;;6.28;4.78;;;;;24.60;100737.00;;;;2066149;28;20233;-58
2023/06/22 01:06:15;;;;;;;6.72;5.00;;;;;24.50;100737.00;;;;2072999;28;20203;-56
2023/06/22 01:07:40;;;;;;;6.80;4.72;;;;;24.60;100739.00;;;;2061121;28;20215;-56
2023/06/22 01:08:50;;;;;;;5.80;5.30;;;;;24.60;100737.00;;;;2070623;28;20224;-57
2023/06/22 01:09:59;;;;;;;7.00;4.70;;;;;24.60;100732.00;;;;2065406;28;20210;-56
2023/06/22 01:11:33;;;;;;;7.20;5.25;;;;;24.60;100724.00;;;;2072746;28;20500;-56
2023/06/22 01:12:38;;;;;;;5.63;4.90;;;;;24.50;100734.00;;;;2034010;29;20844;-58
2023/06/22 01:14:00;;;;;;;5.70;5.20;;;;;24.50;100741.00;;;;2056168;28;20299;-57
2023/06/22 01:15:28;;;;;;;10.23;5.70;;;;;24.50;100732.00;;;;2056763;28;20237;-58
2023/06/22 01:16:30;;;;;;;5.40;4.90;;;;;24.50;100738.00;;;;2072362;28;20313;-57
2023/06/22 01:17:31;;;;;;;5.83;5.00;;;;;24.50;100744.00;;;;2067170;28;20258;-57
2023/06/22 01:18:33;;;;;;;5.67;5.17;;;;;24.50;100731.00;;;;2072883;28;20463;-57
2023/06/22 01:19:51;;;;;;;6.20;5.60;;;;;24.50;100731.00;;;;2066978;28;20218;-57
2023/06/22 01:20:53;;;;;;;6.03;5.30;;;;;24.50;100741.00;;;;2062955;28;20276;-57
2023/06/22 01:21:54;;;;;;;6.30;5.70;;;;;24.50;100732.00;;;;2075040;28;20269;-56
2023/06/22 01:23:07;;;;;;;5.47;4.97;;;;;24.50;100737.00;;;;2074473;28;20243;-56
2023/06/22 01:24:52;;;;;;;5.20;4.70;;;;;24.50;100730.00;;;;2072632;28;20993;-57
2023/06/22 01:26:02;;;;;;;5.10;4.60;;;;;24.50;100729.00;;;;2078744;28;20230;-57
2023/06/22 01:27:41;;;;;;;6.82;5.10;;;;;24.50;100730.00;;;;2073186;28;20218;-58
2023/06/22 01:28:48;;;;;;;7.65;5.32;;;;;24.50;100729.00;;;;2045995;28;20228;-58
2023/06/22 01:29:51;;;;;;;7.10;5.40;;;;;24.50;100727.00;;;;2031406;29;20221;-58
2023/06/22 01:31:03;;;;;;;6.40;5.70;;;;;24.50;100724.00;;;;2038532;28;20225;-57
2023/06/22 01:32:04;;;;;;;6.18;5.35;;;;;24.50;100711.00;;;;2062382;28;20291;-56
2023/06/22 01:33:04;;;;;;;5.67;4.60;;;;;24.50;100735.00;;;;2061886;28;20231;-56
2023/06/22 01:34:05;;;;;;;5.90;5.17;;;;;24.50;100726.00;;;;2064833;28;20246;-56
2023/06/22 01:35:06;;;;;;;5.53;4.93;;;;;24.50;100724.00;;;;2074652;28;20693;-57
2023/06/22 01:36:06;;;;;;;5.30;4.80;;;;;24.40;100725.00;;;;2074410;28;20567;-56
2023/06/22 01:37:07;;;;;;;7.90;5.40;;;;;24.50;100735.00;;;;2058235;28;20450;-57
2023/06/22 01:38:07;;;;;;;7.07;6.37;;;;;24.50;100719.00;;;;2058433;28;20707;-57
2023/06/22 01:39:07;;;;;;;7.70;5.80;;;;;24.50;100719.00;;;;2056419;28;20757;-56
2023/06/22 01:40:08;;;;;;;6.13;5.53;;;;;24.50;100721.00;;;;2042992;28;20221;-56
2023/06/22 01:41:08;;;;;;;5.90;5.40;;;;;24.50;100720.00;;;;2067468;28;20219;-57
2023/06/22 01:42:09;;;;;;;6.27;5.67;;;;;24.50;100714.00;;;;2065212;28;20211;-56
2023/06/22 01:43:09;;;;;;;5.80;4.70;;;;;24.50;100708.00;;;;2063246;28;20333;-57
2023/06/22 01:44:09;;;;;;;7.90;5.47;;;;;24.50;100721.00;;;;2075600;28;20211;-57
2023/06/22 01:45:11;;;;;;;7.43;5.30;;;;;24.50;100712.00;;;;2062559;28;20230;-57
2023/06/22 01:46:11;;;;;;;7.00;5.57;;;;;24.50;100705.00;;;;2062866;28;20269;-57
2023/06/22 01:47:13;;;;;;;5.80;5.23;;;;;24.50;100708.00;;;;2055754;28;21009;-57
2023/06/22 01:48:14;;;;;;;6.30;5.27;;;;;24.50;100703.00;;;;2063760;28;20220;-56
2023/06/22 01:49:14;;;;;;;5.40;4.90;;;;;24.50;100702.00;;;;2062302;28;20992;-58
2023/06/22 01:50:15;;;;;;;5.63;5.13;;;;;24.50;100708.00;;;;2057564;28;20698;-57
2023/06/22 01:51:15;;;;;;;5.90;4.97;;;;;24.50;100714.00;;;;2065113;28;21260;-58
2023/06/22 01:52:15;;;;;;;7.10;5.30;;;;;24.50;100714.00;;;;2068299;28;20215;-57
2023/06/22 01:53:16;;;;;;;8.53;5.17;;;;;24.50;100722.00;;;;2085130;28;20274;-58
2023/06/22 01:54:16;;;;;;;5.23;4.70;;;;;24.50;100721.00;;;;2083198;28;20212;-58
2023/06/22 01:55:16;;;;;;;6.13;4.87;;;;;24.50;100717.00;;;;2072140;28;20240;-58
2023/06/22 01:56:17;;;;;;;5.83;5.10;;;;;24.50;100720.00;;;;2082476;28;20205;-57
2023/06/22 01:57:17;;;;;;;7.10;4.40;;;;;24.50;100722.00;;;;2075898;28;20213;-57
2023/06/22 01:58:17;;;;;;;4.73;4.10;;;;;24.50;100726.00;;;;2076886;28;20269;-56
2023/06/22 01:59:23;;;;;;;4.57;4.17;;;;;24.50;100724.00;;;;2074912;28;20225;-56
2023/06/22 02:00:25;;;;;;;8.63;4.70;;;;;24.50;100711.00;;;;2064951;28;20225;-57
2023/06/22 02:01:30;;;;;;;5.15;4.60;;;;;24.50;100725.00;;;;2068381;28;20449;-56
2023/06/22 02:02:36;;;;;;;5.55;5.05;;;;;24.50;100722.00;;;;2068153;28;20241;-56
2023/06/22 02:03:42;;;;;;;6.47;4.80;;;;;24.50;100714.00;;;;2060966;28;20226;-56
2023/06/22 02:04:46;;;;;;;5.67;4.83;;;;;24.50;100712.00;;;;2046013;28;20228;-56
2023/06/22 02:05:52;;;;;;;4.57;3.97;;;;;24.50;100715.00;;;;2038003;28;21134;-56
2023/06/22 02:06:56;;;;;;;4.20;3.67;;;;;24.50;100708.00;;;;2065411;28;20225;-56
2023/06/22 02:08:16;;;;;;;5.40;4.22;;;;;24.50;100713.00;;;;2074388;28;20652;-56
2023/06/22 02:09:17;;;;;;;5.53;3.80;;;;;24.50;100745.00;;;;2061035;28;20924;-56
2023/06/22 02:10:17;;;;;;;4.93;4.43;;;;;24.40;100718.00;;;;2037545;28;20231;-57
2023/06/22 02:11:18;;;;;;;4.30;3.60;;;;;24.40;100718.00;;;;2058785;28;20297;-57
2023/06/22 02:12:22;;;;;;;4.80;4.28;;;;;24.40;100718.00;;;;2064199;28;20277;-56
2023/06/22 02:13:24;;;;;;;7.32;4.35;;;;;24.40;100711.00;;;;2060835;28;20207;-57
2023/06/22 02:14:24;;;;;;;5.93;4.07;;;;;24.40;100711.00;;;;2063763;28;20210;-57
2023/06/22 02:15:25;;;;;;;5.60;5.10;;;;;24.40;100701.00;;;;2058369;28;20241;-57
2023/06/22 02:16:29;;;;;;;5.77;4.50;;;;;24.40;100707.00;;;;2058195;28;20309;-57
2023/06/22 02:17:32;;;;;;;7.38;5.88;;;;;24.40;100704.00;;;;2060834;28;20290;-57
2023/06/22 02:18:35;;;;;;;5.60;5.05;;;;;24.40;100710.00;;;;2058526;28;20215;-58
2023/06/22 02:19:36;;;;;;;6.18;5.00;;;;;24.40;100714.00;;;;2076107;28;20600;-58
2023/06/22 02:20:37;;;;;;;7.05;5.40;;;;;24.40;100716.00;;;;2072290;28;20208;-57
2023/06/22 02:21:38;;;;;;;6.80;6.13;;;;;24.40;100708.00;;;;2083955;28;20244;-57
2023/06/22 02:22:38;;;;;;;5.73;5.20;;;;;24.40;100714.00;;;;2084654;28;20278;-57
2023/06/22 02:23:38;;;;;;;5.27;4.77;;;;;24.40;100708.00;;;;2084256;28;20228;-56
2023/06/22 02:24:39;;;;;;;6.50;5.20;;;;;24.40;100709.00;;;;2085169;28;20244;-57
2023/06/22 02:25:39;;;;;;;6.20;5.60;;;;;24.40;100703.00;;;;2067779;28;20214;-56
2023/06/22 02:26:42;;;;;;;6.77;5.50;;;;;24.10;100709.00;;;;2082606;28;20221;-56
2023/06/22 02:27:42;;;;;;;6.05;5.45;;;;;24.40;100703.00;;;;2077465;28;20389;-57
2023/06/22 02:28:42;;;;;;;6.60;5.93;;;;;24.30;100701.00;;;;2084890;28;20355;-57
2023/06/22 02:29:43;;;;;;;7.00;6.30;;;;;24.30;100700.00;;;;2084975;28;20221;-57
2023/06/22 02:30:43;;;;;;;8.43;6.40;;;;;24.40;100701.00;;;;2066470;28;20297;-56
2023/06/22 02:31:43;;;;;;;6.67;6.00;;;;;24.40;100696.00;;;;2077130;28;20218;-54
2023/06/22 02:32:44;;;;;;;7.47;6.20;;;;;24.40;100692.00;;;;2082530;28;20270;-56
2023/06/22 02:33:45;;;;;;;6.87;6.00;;;;;24.40;100694.00;;;;2078811;28;20584;-56
2023/06/22 02:34:47;;;;;;;6.40;5.80;;;;;24.40;100704.00;;;;2077520;28;20292;-58
2023/06/22 02:35:48;;;;;;;7.50;6.78;;;;;24.40;100694.00;;;;2066935;28;20499;-57
2023/06/22 02:36:52;;;;;;;10.23;6.40;;;;;24.30;100698.00;;;;2084531;28;20213;-57
2023/06/22 02:37:52;;;;;;;7.55;6.80;;;;;24.30;100694.00;;;;2084168;28;20216;-57
2023/06/22 02:38:54;;;;;;;6.50;5.90;;;;;24.30;100700.00;;;;2077262;28;20224;-56
2023/06/22 02:39:54;;;;;;;5.68;5.18;;;;;24.40;100693.00;;;;2071927;28;20219;-57
2023/06/22 02:40:54;;;;;;;6.90;6.30;;;;;24.40;100708.00;;;;2076388;28;20665;-56
2023/06/22 02:41:55;;;;;;;6.63;5.67;;;;;24.40;100699.00;;;;2082136;28;21437;-56
2023/06/22 02:42:57;;;;;;;6.93;6.33;;;;;24.40;100693.00;;;;2084253;28;20558;-58
2023/06/22 02:43:58;;;;;;;6.25;5.30;;;;;24.40;100693.00;;;;2085020;28;20220;-57
2023/06/22 02:44:58;;;;;;;6.73;6.03;;;;;24.40;100696.00;;;;2072263;28;20900;-56
2023/06/22 02:45:58;;;;;;;6.00;5.27;;;;;24.40;100698.00;;;;2077181;28;20749;-57
2023/06/22 02:46:59;;;;;;;6.50;5.97;;;;;24.40;100720.00;;;;2081338;28;20213;-57
2023/06/22 02:47:59;;;;;;;6.63;6.03;;;;;24.40;100695.00;;;;2084968;28;20737;-54
2023/06/22 02:48:59;;;;;;;8.87;5.90;;;;;24.30;100693.00;;;;2083995;28;20213;-56
2023/06/22 02:50:01;;;;;;;6.90;6.20;;;;;24.40;100693.00;;;;2072919;28;20259;-57
2023/06/22 02:51:01;;;;;;;6.78;6.10;;;;;24.40;100695.00;;;;2079145;28;20233;-58
2023/06/22 02:52:01;;;;;;;5.80;5.30;;;;;24.40;100681.00;;;;2079172;28;20304;-54
2023/06/22 02:53:02;;;;;;;6.10;5.60;;;;;24.40;100695.00;;;;2083927;28;20235;-55
2023/06/22 02:54:02;;;;;;;6.30;5.80;;;;;24.40;100685.00;;;;2082290;28;20208;-58
2023/06/22 02:55:02;;;;;;;6.47;5.87;;;;;24.40;100687.00;;;;2074760;28;20251;-57
2023/06/22 02:56:05;;;;;;;6.50;5.90;;;;;24.40;100688.00;;;;2081767;28;21120;-58
2023/06/22 02:57:05;;;;;;;6.63;5.97;;;;;24.30;100689.00;;;;2080222;28;20268;-58
2023/06/22 02:58:05;;;;;;;7.20;6.33;;;;;24.40;100681.00;;;;2081901;28;20232;-57
2023/06/22 02:59:06;;;;;;;7.20;6.50;;;;;24.40;100683.00;;;;2079848;28;20213;-55
2023/06/22 03:00:17;;;;;;;6.20;5.60;;;;;24.30;100676.00;;;;2072018;28;20224;-55
2023/06/22 03:01:23;;;;;;;8.30;6.15;;;;;24.30;100679.00;;;;2080193;28;20220;-55
2023/06/22 03:02:24;;;;;;;7.18;6.40;;;;;24.40;100673.00;;;;2084676;28;20205;-58
2023/06/22 03:03:26;;;;;;;7.20;5.90;;;;;24.30;100678.00;;;;2084360;28;20204;-56
2023/06/22 03:04:26;;;;;;;6.73;6.13;;;;;24.30;100681.00;;;;2083837;28;21181;-54
2023/06/22 03:05:26;;;;;;;8.50;7.53;;;;;24.40;100680.00;;;;2074665;28;20459;-55
2023/06/22 03:06:28;;;;;;;6.77;5.93;;;;;24.30;100679.00;;;;2082670;28;20593;-57
2023/06/22 03:07:30;;;;;;;6.90;6.20;;;;;24.30;100680.00;;;;2077660;28;20609;-55
2023/06/22 03:08:30;;;;;;;7.75;6.30;;;;;24.30;100678.00;;;;2082548;28;20233;-57
2023/06/22 03:09:30;;;;;;;7.40;6.37;;;;;24.30;100678.00;;;;2084022;28;20217;-54
2023/06/22 03:10:31;;;;;;;7.03;6.40;;;;;24.30;100676.00;;;;2074273;28;20216;-55
2023/06/22 03:11:32;;;;;;;7.90;6.30;;;;;24.30;100674.00;;;;2079434;28;20275;-54
2023/06/22 03:12:32;;;;;;;7.45;6.60;;;;;24.30;100678.00;;;;2076718;28;20225;-57
2023/06/22 03:13:32;;;;;;;6.80;6.20;;;;;24.30;100672.00;;;;2080820;28;20220;-58
2023/06/22 03:14:33;;;;;;;7.90;7.10;;;;;24.30;100667.00;;;;2082071;28;20218;-54
2023/06/22 03:15:33;;;;;;;7.43;5.47;;;;;24.30;100669.00;;;;2063832;28;20309;-56
2023/06/22 03:16:33;;;;;;;7.37;6.57;;;;;24.30;100669.00;;;;2068479;28;20229;-58
2023/06/22 03:17:34;;;;;;;7.03;6.30;;;;;24.20;100674.00;;;;2082312;28;20221;-58
2023/06/22 03:18:35;;;;;;;7.50;6.80;;;;;24.30;100663.00;;;;2084057;28;20832;-58
2023/06/22 03:19:35;;;;;;;7.10;6.50;;;;;24.30;100671.00;;;;2085210;28;20455;-56
2023/06/22 03:20:36;;;;;;;7.20;6.00;;;;;24.30;100671.00;;;;2063799;28;20305;-58
2023/06/22 03:21:38;;;;;;;6.60;6.00;;;;;24.30;100669.00;;;;2069762;28;20280;-58
2023/06/22 03:22:39;;;;;;;6.32;5.72;;;;;24.30;100662.00;;;;2082334;28;20389;-57
2023/06/22 03:23:39;;;;;;;7.40;6.20;;;;;24.30;100665.00;;;;2083762;28;20351;-58
2023/06/22 03:24:39;;;;;;;6.97;6.27;;;;;24.30;100666.00;;;;2084902;28;20224;-54
2023/06/22 03:25:40;;;;;;;6.50;5.80;;;;;24.30;100664.00;;;;2071206;28;20213;-57
2023/06/22 03:26:41;;;;;;;7.00;6.40;;;;;24.20;100669.00;;;;2076493;28;20228;-57
2023/06/22 03:27:42;;;;;;;7.10;6.50;;;;;23.90;100663.00;;;;2077145;28;20245;-57
2023/06/22 03:28:42;;;;;;;6.83;6.23;;;;;24.30;100660.00;;;;2075116;28;20246;-57
2023/06/22 03:29:42;;;;;;;6.73;6.13;;;;;24.20;100669.00;;;;2068491;28;20586;-56
2023/06/22 03:30:43;;;;;;;7.07;6.37;;;;;24.20;100670.00;;;;2063380;28;20217;-55
2023/06/22 03:31:43;;;;;;;6.67;6.07;;;;;24.30;100661.00;;;;2075040;28;20796;-58
2023/06/22 03:32:43;;;;;;;7.73;6.93;;;;;24.20;100666.00;;;;2080519;28;20688;-58
2023/06/22 03:33:44;;;;;;;7.47;6.77;;;;;24.20;100667.00;;;;2076973;28;20618;-56
2023/06/22 03:34:46;;;;;;;6.83;6.13;;;;;24.20;100659.00;;;;2077170;28;20221;-55
2023/06/22 03:35:47;;;;;;;6.30;5.80;;;;;24.20;100668.00;;;;2061805;28;20276;-55
2023/06/22 03:36:48;;;;;;;7.00;6.40;;;;;24.20;100666.00;;;;2070262;28;20360;-56
2023/06/22 03:37:48;;;;;;;6.70;6.10;;;;;24.20;100674.00;;;;2076428;28;20229;-57
2023/06/22 03:38:49;;;;;;;6.80;6.20;;;;;24.20;100667.00;;;;2084580;28;20221;-54
2023/06/22 03:39:49;;;;;;;6.60;5.90;;;;;24.20;100663.00;;;;2076078;28;20280;-57
2023/06/22 03:40:49;;;;;;;6.53;5.93;;;;;24.20;100669.00;;;;2079896;28;20447;-58
2023/06/22 03:41:50;;;;;;;7.50;6.40;;;;;24.10;100664.00;;;;2082107;28;20219;-55
2023/06/22 03:42:50;;;;;;;6.77;6.00;;;;;24.00;100669.00;;;;2076110;28;20296;-57
2023/06/22 03:43:50;;;;;;;11.27;6.97;;;;;24.30;100662.00;;;;2077279;28;20214;-55
2023/06/22 03:44:51;;;;;;;8.50;6.63;;;;;24.10;100673.00;;;;2067631;28;20225;-58
2023/06/22 03:45:51;;;;;;;6.60;6.00;;;;;24.10;100672.00;;;;2076093;28;20601;-58
2023/06/22 03:46:51;;;;;;;9.33;6.93;;;;;24.00;100665.00;;;;2072433;28;20215;-55
2023/06/22 03:47:53;;;;;;;7.47;6.77;;;;;24.00;100659.00;;;;2072927;28;20245;-58
2023/06/22 03:48:53;;;;;;;8.05;7.20;;;;;23.90;100659.00;;;;2083134;28;20784;-58
2023/06/22 03:49:54;;;;;;;7.20;6.40;;;;;23.90;100657.00;;;;2073510;28;20219;-59
2023/06/22 03:50:55;;;;;;;9.57;7.15;;;;;23.90;100651.00;;;;2082631;28;20213;-54
2023/06/22 03:51:55;;;;;;;8.67;7.70;;;;;23.90;100650.00;;;;2077213;28;20209;-55
2023/06/22 03:52:55;;;;;;;8.47;7.57;;;;;23.90;100649.00;;;;2079396;28;20218;-57
2023/06/22 03:53:56;;;;;;;8.17;7.37;;;;;23.90;100644.00;;;;2083950;28;20255;-59
2023/06/22 03:54:56;;;;;;;7.87;6.90;;;;;23.90;100640.00;;;;2074850;28;24907;-58
2023/06/22 03:55:56;;;;;;;8.03;7.23;;;;;23.80;100643.00;;;;2080896;28;20709;-56
2023/06/22 03:56:57;;;;;;;10.27;8.70;;;;;23.80;100642.00;;;;2081382;28;20734;-58
2023/06/22 03:57:58;;;;;;;9.37;8.37;;;;;23.80;100639.00;;;;2069543;28;20233;-55
2023/06/22 03:58:58;;;;;;;8.77;7.97;;;;;23.80;100642.00;;;;2069624;28;20218;-55
2023/06/22 03:59:59;;;;;;;7.93;7.33;;;;;23.90;100638.00;;;;2074557;28;20456;-55
2023/06/22 04:00:59;;;;;;;9.57;8.70;;;;;23.90;100643.00;;;;2081831;28;20646;-56
2023/06/22 04:02:00;;;;;;;8.33;7.60;;;;;23.90;100642.00;;;;2084767;28;20243;-57
2023/06/22 04:03:00;;;;;;;9.00;8.10;;;;;23.90;100637.00;;;;2077558;28;20636;-57
2023/06/22 04:04:01;;;;;;;10.20;8.17;;;;;23.90;100650.00;;;;2083714;28;20286;-59
2023/06/22 04:05:01;;;;;;;9.10;8.20;;;;;23.80;100645.00;;;;2073905;28;20223;-58
2023/06/22 04:06:01;;;;;;;9.30;8.53;;;;;23.80;100646.00;;;;2084876;28;20673;-57
2023/06/22 04:07:02;;;;;;;9.70;8.80;;;;;23.80;100644.00;;;;2082419;28;20673;-59
2023/06/22 04:08:02;;;;;;;10.87;8.20;;;;;23.80;100644.00;;;;2083132;28;20931;-56
2023/06/22 04:09:02;;;;;;;9.30;8.50;;;;;23.90;100644.00;;;;2079268;28;20220;-57
2023/06/22 04:10:04;;;;;;;9.83;9.00;;;;;23.80;100645.00;;;;2068298;28;20692;-58
2023/06/22 04:11:05;;;;;;;9.80;8.82;;;;;23.80;100639.00;;;;2069329;28;20277;-57
2023/06/22 04:12:05;;;;;;;10.20;9.40;;;;;23.80;100640.00;;;;2071850;28;20644;-58
2023/06/22 04:13:06;;;;;;;9.47;8.67;;;;;23.80;100641.00;;;;2083342;28;20258;-58
2023/06/22 04:14:06;;;;;;;9.60;8.70;;;;;23.80;100642.00;;;;2081802;28;20312;-56
2023/06/22 04:15:07;;;;;;;9.37;8.47;;;;;23.80;100639.00;;;;2071840;28;20829;-56
2023/06/22 04:16:08;;;;;;;9.93;9.13;;;;;23.80;100643.00;;;;2068817;28;20264;-59
2023/06/22 04:17:08;;;;;;;11.37;10.17;;;;;23.80;100652.00;;;;2074449;28;20221;-63
2023/06/22 04:18:08;;;;;;;9.63;8.73;;;;;23.80;100649.00;;;;2070396;28;20221;-61
2023/06/22 04:19:16;;;;;;;10.70;9.70;;;;;23.80;100655.00;;;;2073039;28;20218;-55
2023/06/22 04:20:16;;;;;;;11.10;10.00;;;;;23.80;100653.00;;;;2072028;28;20281;-59
2023/06/22 04:21:17;;;;;;;10.47;9.40;;;;;23.80;100649.00;;;;2078866;28;20669;-56
2023/06/22 04:22:17;;;;;;;10.93;9.93;;;;;23.80;100644.00;;;;2084424;28;20201;-57
2023/06/22 04:23:17;;;;;;;9.63;8.73;;;;;23.80;100645.00;;;;2082979;28;20221;-56
2023/06/22 04:24:18;;;;;;;10.83;9.77;;;;;23.80;100646.00;;;;2083198;28;20232;-58
2023/06/22 04:25:18;;;;;;;9.40;8.60;;;;;23.80;100648.00;;;;2074755;28;20213;-59
2023/06/22 04:26:20;;;;;;;9.70;8.80;;;;;23.80;100653.00;;;;2079427;28;20225;-57
2023/06/22 04:27:22;;;;;;;11.25;10.15;;;;;23.80;100648.00;;;;2083692;28;20566;-57
2023/06/22 04:28:23;;;;;;;10.38;9.38;;;;;23.80;100644.00;;;;2081550;28;20216;-59
2023/06/22 04:29:28;;;;;;;11.30;9.90;;;;;23.70;100651.00;;;;2080553;28;20674;-56
2023/06/22 04:30:31;;;;;;;10.30;9.40;;;;;23.80;100648.00;;;;2069136;28;20230;-58
2023/06/22 04:31:36;;;;;;;11.32;9.65;;;;;23.80;100648.00;;;;2081691;28;20225;-57
2023/06/22 04:32:36;;;;;;;10.32;9.43;;;;;23.70;100653.00;;;;2077900;28;20304;-58
2023/06/22 04:33:40;;;;;;;10.77;9.70;;;;;23.70;100655.00;;;;2083299;28;20232;-58
2023/06/22 04:34:41;;;;;;;11.68;10.55;;;;;23.80;100657.00;;;;2075440;28;20217;-58
2023/06/22 04:35:41;;;;;;;11.77;10.23;;;;;23.70;100659.00;;;;2071752;28;20239;-59
2023/06/22 04:36:41;;;;;;;10.77;9.77;;;;;23.70;100655.00;;;;2072302;28;20210;-59
2023/06/22 04:37:42;;;;;;;11.23;9.97;;;;;23.70;100657.00;;;;2062153;28;20226;-56
2023/06/22 04:38:42;;;;;;;10.50;9.50;;;;;23.70;100658.00;;;;2076576;28;20767;-57
2023/06/22 04:39:43;;;;;;;14.87;10.53;;;;;23.70;100657.00;;;;2080930;28;20677;-58
2023/06/22 04:40:43;;;;;;;10.67;9.63;;;;;23.80;100651.00;;;;2059836;28;20333;-58
2023/06/22 04:41:44;;;;;;;11.10;9.73;;;;;23.70;100655.00;;;;2075233;28;20232;-56
2023/06/22 04:42:52;;;;;;;10.97;9.87;;;;;23.70;100656.00;;;;2075449;28;20217;-56
2023/06/22 04:43:53;;;;;;;12.07;10.98;;;;;23.70;100658.00;;;;2070486;28;20253;-55
2023/06/22 04:44:54;;;;;;;12.10;10.80;;;;;23.50;100654.00;;;;2072224;28;20224;-58
2023/06/22 04:45:54;;;;;;;11.40;10.30;;;;;23.70;100656.00;;;;2060964;28;20647;-55
2023/06/22 04:47:01;;;;;;;10.80;9.70;;;;;23.70;100660.00;;;;2061302;28;20222;-56
2023/06/22 04:48:02;;;;;;;11.85;10.75;;;;;23.70;100658.00;;;;2084931;28;20274;-59
2023/06/22 04:49:03;;;;;;;11.17;10.10;;;;;23.70;100673.00;;;;2085347;28;20274;-59
2023/06/22 04:50:05;;;;;;;11.87;10.47;;;;;23.70;100655.00;;;;2072406;28;20564;-58
2023/06/22 04:51:08;;;;;;;10.95;9.85;;;;;23.70;100646.00;;;;2083366;28;20477;-58
2023/06/22 04:52:09;;;;;;;10.85;9.75;;;;;23.70;100649.00;;;;2084047;28;20212;-55
2023/06/22 04:53:12;;;;;;;11.20;10.23;;;;;23.80;100655.00;;;;2081242;28;20236;-60
2023/06/22 04:54:12;;;;;;;11.35;10.20;;;;;23.70;100652.00;;;;2084213;28;20217;-59
2023/06/22 04:55:18;;;;;;;11.47;10.50;;;;;23.80;100655.00;;;;2072549;28;20318;-56
2023/06/22 04:56:18;;;;;;;11.00;10.07;;;;;23.70;100643.00;;;;2069894;28;20210;-58
2023/06/22 04:57:18;;;;;;;13.63;12.33;;;;;23.70;100643.00;;;;2072142;28;20210;-55
2023/06/22 04:58:19;;;;;;;10.90;9.80;;;;;23.60;100506.00;;;;2086120;28;20571;-55
2023/06/22 04:59:20;;;;;;;12.30;11.30;;;;;23.60;100635.00;;;;2080877;28;20625;-57
2023/06/22 05:00:21;;;;;;;12.13;10.90;;;;;23.60;100647.00;;;;2071239;28;20460;-57
2023/06/22 05:01:23;;;;;;;11.15;10.05;;;;;23.60;100639.00;;;;2070637;28;20234;-55
2023/06/22 05:02:32;;;;;;;12.40;11.15;;;;;23.60;100642.00;;;;2068933;28;20217;-58
2023/06/22 05:03:33;;;;;;;11.82;10.82;;;;;23.50;100642.00;;;;2077515;28;20240;-59
2023/06/22 05:04:35;;;;;;;11.20;10.10;;;;;23.50;100650.00;;;;2083944;28;20300;-58
2023/06/22 05:05:35;;;;;;;11.48;10.27;;;;;23.50;100649.00;;;;2072846;28;20235;-57